sensor_id;sensor_type;location;lat;lon;timestamp;temperature;humidity
33811;DHT22;20119;48.334;16.206;2023-03-31T00:00:30;8.60;99.90
33811;DHT22;20119;48.334;16.206;2023-03-31T00:02:57;8.60;99.90
33811;DHT22;20119;48.334;16.206;2023-03-31T00:05:25;8.50;99.90
33811;DHT22;20119;48.334;16.206;2023-03-31T00:07:53;8.50;99.90
33811;DHT22;20119;48.334;16.206;2023-03-31T00:10:26;8.40;99.90
33811;DHT22;20119;48.334;16.206;2023-03-31T00:12:54;8.40;99.90
33811;DHT22;20119;48.334;16.206;2023-03-31T00:15:21;8.40;99.90
33811;DHT22;20119;48.334;16.206;2023-03-31T00:17:49;8.30;99.90
33811;DHT22;20119;48.334;16.206;2023-03-31T00:20:18;8.30;99.90
33811;DHT22;20119;48.334;16.206;2023-03-31T00:22:45;8.20;99.90
33811;DHT22;20119;48.334;16.206;2023-03-31T00:25:15;8.20;99.90
33811;DHT22;20119;48.334;16.206;2023-03-31T00:27:42;8.10;99.90
33811;DHT22;20119;48.334;16.206;2023-03-31T00:30:13;8.10;99.90
33811;DHT22;20119;48.334;16.206;2023-03-31T00:32:40;8.00;99.90
33811;DHT22;20119;48.334;16.206;2023-03-31T00:35:09;8.00;99.90
33811;DHT22;20119;48.334;16.206;2023-03-31T00:37:36;7.80;99.90
33811;DHT22;20119;48.334;16.206;2023-03-31T00:40:04;7.80;99.90
33811;DHT22;20119;48.334;16.206;2023-03-31T00:42:39;7.70;99.90
33811;DHT22;20119;48.334;16.206;2023-03-31T00:45:26;7.60;99.90
33811;DHT22;20119;48.334;16.206;2023-03-31T00:48:00;7.50;99.90
33811;DHT22;20119;48.334;16.206;2023-03-31T00:50:33;7.40;99.90
33811;DHT22;20119;48.334;16.206;2023-03-31T00:53:04;7.30;99.90
33811;DHT22;20119;48.334;16.206;2023-03-31T00:55:34;7.30;99.90
33811;DHT22;20119;48.334;16.206;2023-03-31T00:58:05;7.20;99.90
33811;DHT22;20119;48.334;16.206;2023-03-31T01:00:35;7.10;99.90
33811;DHT22;20119;48.334;16.206;2023-03-31T01:03:04;7.10;99.90
33811;DHT22;20119;48.334;16.206;2023-03-31T01:05:38;7.00;99.90
33811;DHT22;20119;48.334;16.206;2023-03-31T01:08:09;6.90;99.90
33811;DHT22;20119;48.334;16.206;2023-03-31T01:10:40;6.90;99.90
33811;DHT22;20119;48.334;16.206;2023-03-31T01:13:10;6.80;99.90
33811;DHT22;20119;48.334;16.206;2023-03-31T01:15:42;6.70;99.90
33811;DHT22;20119;48.334;16.206;2023-03-31T01:18:11;6.60;99.90
33811;DHT22;20119;48.334;16.206;2023-03-31T01:26:48;6.40;99.90
33811;DHT22;20119;48.334;16.206;2023-03-31T01:29:40;6.30;99.90
33811;DHT22;20119;48.334;16.206;2023-03-31T01:32:48;6.30;99.90
33811;DHT22;20119;48.334;16.206;2023-03-31T01:35:43;6.30;99.90
33811;DHT22;20119;48.334;16.206;2023-03-31T01:41:45;6.10;99.90
33811;DHT22;20119;48.334;16.206;2023-03-31T01:44:22;6.10;99.90
33811;DHT22;20119;48.334;16.206;2023-03-31T01:46:57;6.10;99.90
33811;DHT22;20119;48.334;16.206;2023-03-31T01:49:37;6.10;99.90
33811;DHT22;20119;48.334;16.206;2023-03-31T01:52:15;6.10;99.90
33811;DHT22;20119;48.334;16.206;2023-03-31T01:54:48;6.20;99.90
33811;DHT22;20119;48.334;16.206;2023-03-31T01:57:20;6.20;99.90
33811;DHT22;20119;48.334;16.206;2023-03-31T01:59:54;6.10;99.90
33811;DHT22;20119;48.334;16.206;2023-03-31T02:02:27;6.10;99.90
33811;DHT22;20119;48.334;16.206;2023-03-31T02:05:16;6.00;99.90
33811;DHT22;20119;48.334;16.206;2023-03-31T02:07:50;6.10;99.90
33811;DHT22;20119;48.334;16.206;2023-03-31T02:10:20;6.10;99.90
33811;DHT22;20119;48.334;16.206;2023-03-31T02:12:52;6.00;99.90
33811;DHT22;20119;48.334;16.206;2023-03-31T02:15:24;5.90;99.90
33811;DHT22;20119;48.334;16.206;2023-03-31T02:17:56;5.90;99.90
33811;DHT22;20119;48.334;16.206;2023-03-31T02:20:26;5.90;99.90
33811;DHT22;20119;48.334;16.206;2023-03-31T02:22:57;5.90;99.90
33811;DHT22;20119;48.334;16.206;2023-03-31T02:25:31;5.90;99.90
33811;DHT22;20119;48.334;16.206;2023-03-31T02:28:04;5.80;99.90
33811;DHT22;20119;48.334;16.206;2023-03-31T02:30:41;5.80;99.90
33811;DHT22;20119;48.334;16.206;2023-03-31T02:33:11;5.80;99.90
33811;DHT22;20119;48.334;16.206;2023-03-31T02:35:40;5.80;99.90
33811;DHT22;20119;48.334;16.206;2023-03-31T02:38:07;5.80;99.90
33811;DHT22;20119;48.334;16.206;2023-03-31T02:40:37;5.80;99.90
33811;DHT22;20119;48.334;16.206;2023-03-31T02:43:06;5.80;99.90
33811;DHT22;20119;48.334;16.206;2023-03-31T02:45:42;5.80;99.90
33811;DHT22;20119;48.334;16.206;2023-03-31T02:48:29;5.80;99.90
33811;DHT22;20119;48.334;16.206;2023-03-31T02:51:31;5.90;99.90
33811;DHT22;20119;48.334;16.206;2023-03-31T02:54:22;6.00;99.90
33811;DHT22;20119;48.334;16.206;2023-03-31T02:57:05;6.00;99.90
33811;DHT22;20119;48.334;16.206;2023-03-31T02:59:47;6.00;99.90
33811;DHT22;20119;48.334;16.206;2023-03-31T03:02:22;5.90;99.90
33811;DHT22;20119;48.334;16.206;2023-03-31T03:05:07;5.90;99.90
33811;DHT22;20119;48.334;16.206;2023-03-31T03:07:46;5.90;99.90
33811;DHT22;20119;48.334;16.206;2023-03-31T03:10:19;5.80;99.90
33811;DHT22;20119;48.334;16.206;2023-03-31T03:12:56;5.70;99.90
33811;DHT22;20119;48.334;16.206;2023-03-31T03:15:30;5.60;99.90
33811;DHT22;20119;48.334;16.206;2023-03-31T03:17:58;5.60;99.90
33811;DHT22;20119;48.334;16.206;2023-03-31T03:20:25;5.50;99.90
33811;DHT22;20119;48.334;16.206;2023-03-31T03:22:52;5.40;99.90
33811;DHT22;20119;48.334;16.206;2023-03-31T03:25:20;5.40;99.90
33811;DHT22;20119;48.334;16.206;2023-03-31T03:27:49;5.40;99.90
33811;DHT22;20119;48.334;16.206;2023-03-31T03:30:18;5.30;99.90
33811;DHT22;20119;48.334;16.206;2023-03-31T03:32:51;5.30;99.90
33811;DHT22;20119;48.334;16.206;2023-03-31T03:35:21;5.30;99.90
33811;DHT22;20119;48.334;16.206;2023-03-31T03:37:48;5.30;99.90
33811;DHT22;20119;48.334;16.206;2023-03-31T03:40:16;5.40;99.90
33811;DHT22;20119;48.334;16.206;2023-03-31T03:42:44;5.30;99.90
33811;DHT22;20119;48.334;16.206;2023-03-31T03:45:11;5.40;99.90
33811;DHT22;20119;48.334;16.206;2023-03-31T03:47:38;5.40;99.90
33811;DHT22;20119;48.334;16.206;2023-03-31T03:50:10;5.30;99.90
33811;DHT22;20119;48.334;16.206;2023-03-31T03:52:39;5.30;99.90
33811;DHT22;20119;48.334;16.206;2023-03-31T03:55:07;5.30;99.90
33811;DHT22;20119;48.334;16.206;2023-03-31T03:57:36;5.30;99.90
33811;DHT22;20119;48.334;16.206;2023-03-31T04:00:05;5.30;99.90
33811;DHT22;20119;48.334;16.206;2023-03-31T04:02:35;5.30;99.90
33811;DHT22;20119;48.334;16.206;2023-03-31T04:05:02;5.30;99.90
33811;DHT22;20119;48.334;16.206;2023-03-31T04:07:32;5.30;99.90
33811;DHT22;20119;48.334;16.206;2023-03-31T04:10:00;5.40;99.90
33811;DHT22;20119;48.334;16.206;2023-03-31T04:12:27;5.40;99.90
33811;DHT22;20119;48.334;16.206;2023-03-31T04:14:56;5.40;99.90
33811;DHT22;20119;48.334;16.206;2023-03-31T04:17:23;5.40;99.90
33811;DHT22;20119;48.334;16.206;2023-03-31T04:19:57;5.40;99.90
33811;DHT22;20119;48.334;16.206;2023-03-31T04:22:27;5.30;99.90
33811;DHT22;20119;48.334;16.206;2023-03-31T04:25:02;5.20;99.90
33811;DHT22;20119;48.334;16.206;2023-03-31T04:27:30;5.20;99.90
33811;DHT22;20119;48.334;16.206;2023-03-31T04:29:59;5.10;99.90
33811;DHT22;20119;48.334;16.206;2023-03-31T04:32:26;5.10;99.90
33811;DHT22;20119;48.334;16.206;2023-03-31T04:34:58;5.00;99.90
33811;DHT22;20119;48.334;16.206;2023-03-31T04:37:29;5.10;99.90
33811;DHT22;20119;48.334;16.206;2023-03-31T04:40:01;5.10;99.90
33811;DHT22;20119;48.334;16.206;2023-03-31T04:42:34;5.10;99.90
33811;DHT22;20119;48.334;16.206;2023-03-31T04:45:02;5.20;99.90
33811;DHT22;20119;48.334;16.206;2023-03-31T04:47:30;5.20;99.90
33811;DHT22;20119;48.334;16.206;2023-03-31T04:49:58;5.20;99.90
33811;DHT22;20119;48.334;16.206;2023-03-31T04:52:26;5.20;99.90
33811;DHT22;20119;48.334;16.206;2023-03-31T04:54:53;5.20;99.90
33811;DHT22;20119;48.334;16.206;2023-03-31T04:57:23;5.10;99.90
33811;DHT22;20119;48.334;16.206;2023-03-31T04:59:51;5.20;99.90
33811;DHT22;20119;48.334;16.206;2023-03-31T05:02:20;5.30;99.90
33811;DHT22;20119;48.334;16.206;2023-03-31T05:04:48;5.30;99.90
33811;DHT22;20119;48.334;16.206;2023-03-31T05:07:16;5.40;99.90
33811;DHT22;20119;48.334;16.206;2023-03-31T05:09:45;5.40;99.90
33811;DHT22;20119;48.334;16.206;2023-03-31T05:12:14;5.60;99.90
33811;DHT22;20119;48.334;16.206;2023-03-31T05:14:43;6.00;99.90
33811;DHT22;20119;48.334;16.206;2023-03-31T05:17:12;6.40;99.90
33811;DHT22;20119;48.334;16.206;2023-03-31T05:19:42;6.80;99.90
33811;DHT22;20119;48.334;16.206;2023-03-31T05:22:10;7.20;99.90
33811;DHT22;20119;48.334;16.206;2023-03-31T05:24:38;7.70;99.90
33811;DHT22;20119;48.334;16.206;2023-03-31T05:27:06;8.20;99.90
33811;DHT22;20119;48.334;16.206;2023-03-31T05:29:35;8.80;99.90
33811;DHT22;20119;48.334;16.206;2023-03-31T05:32:05;9.20;99.90
33811;DHT22;20119;48.334;16.206;2023-03-31T05:34:33;9.30;99.90
33811;DHT22;20119;48.334;16.206;2023-03-31T05:37:01;9.80;99.90
33811;DHT22;20119;48.334;16.206;2023-03-31T05:39:30;9.90;99.90
33811;DHT22;20119;48.334;16.206;2023-03-31T05:41:58;10.00;99.90
33811;DHT22;20119;48.334;16.206;2023-03-31T05:44:26;10.10;99.90
33811;DHT22;20119;48.334;16.206;2023-03-31T05:46:55;10.20;99.90
33811;DHT22;20119;48.334;16.206;2023-03-31T05:49:24;10.90;99.90
33811;DHT22;20119;48.334;16.206;2023-03-31T05:51:52;11.90;99.90
33811;DHT22;20119;48.334;16.206;2023-03-31T05:54:20;12.00;99.90
33811;DHT22;20119;48.334;16.206;2023-03-31T05:56:48;12.90;99.90
33811;DHT22;20119;48.334;16.206;2023-03-31T05:59:15;13.10;99.90
33811;DHT22;20119;48.334;16.206;2023-03-31T06:01:42;13.30;99.90
33811;DHT22;20119;48.334;16.206;2023-03-31T06:04:11;13.10;99.90
33811;DHT22;20119;48.334;16.206;2023-03-31T06:06:41;14.00;99.90
33811;DHT22;20119;48.334;16.206;2023-03-31T06:09:10;14.60;99.90
33811;DHT22;20119;48.334;16.206;2023-03-31T06:11:39;15.00;99.90
33811;DHT22;20119;48.334;16.206;2023-03-31T06:14:06;15.20;99.90
33811;DHT22;20119;48.334;16.206;2023-03-31T06:16:33;15.40;99.90
33811;DHT22;20119;48.334;16.206;2023-03-31T06:19:02;16.10;99.90
33811;DHT22;20119;48.334;16.206;2023-03-31T06:21:30;16.80;99.90
33811;DHT22;20119;48.334;16.206;2023-03-31T06:24:00;16.20;99.90
33811;DHT22;20119;48.334;16.206;2023-03-31T06:26:28;15.80;99.90
33811;DHT22;20119;48.334;16.206;2023-03-31T06:28:57;15.80;99.90
33811;DHT22;20119;48.334;16.206;2023-03-31T06:31:24;14.70;99.90
33811;DHT22;20119;48.334;16.206;2023-03-31T06:33:54;14.80;99.90
33811;DHT22;20119;48.334;16.206;2023-03-31T06:36:23;14.60;99.90
33811;DHT22;20119;48.334;16.206;2023-03-31T06:38:50;14.30;99.90
33811;DHT22;20119;48.334;16.206;2023-03-31T06:41:21;14.20;99.90
33811;DHT22;20119;48.334;16.206;2023-03-31T06:43:48;14.10;99.90
33811;DHT22;20119;48.334;16.206;2023-03-31T06:46:15;14.20;99.90
33811;DHT22;20119;48.334;16.206;2023-03-31T06:48:44;14.70;99.90
33811;DHT22;20119;48.334;16.206;2023-03-31T06:51:11;15.10;99.90
33811;DHT22;20119;48.334;16.206;2023-03-31T06:53:39;16.30;99.90
33811;DHT22;20119;48.334;16.206;2023-03-31T06:56:07;16.40;99.90
33811;DHT22;20119;48.334;16.206;2023-03-31T06:58:36;17.10;99.90
33811;DHT22;20119;48.334;16.206;2023-03-31T07:01:04;16.80;99.90
33811;DHT22;20119;48.334;16.206;2023-03-31T07:03:32;17.40;99.90
33811;DHT22;20119;48.334;16.206;2023-03-31T07:05:59;17.90;99.90
33811;DHT22;20119;48.334;16.206;2023-03-31T07:08:27;17.80;99.90
33811;DHT22;20119;48.334;16.206;2023-03-31T07:10:56;18.60;99.90
33811;DHT22;20119;48.334;16.206;2023-03-31T07:13:26;17.50;99.90
33811;DHT22;20119;48.334;16.206;2023-03-31T07:15:57;16.70;99.90
33811;DHT22;20119;48.334;16.206;2023-03-31T07:18:25;16.10;99.90
33811;DHT22;20119;48.334;16.206;2023-03-31T07:20:57;15.70;99.90
33811;DHT22;20119;48.334;16.206;2023-03-31T07:23:25;15.00;99.90
33811;DHT22;20119;48.334;16.206;2023-03-31T07:26:11;15.40;99.90
33811;DHT22;20119;48.334;16.206;2023-03-31T07:28:39;15.00;99.90
33811;DHT22;20119;48.334;16.206;2023-03-31T07:31:13;15.60;99.90
33811;DHT22;20119;48.334;16.206;2023-03-31T07:33:40;15.80;99.90
33811;DHT22;20119;48.334;16.206;2023-03-31T07:36:08;16.50;99.90
33811;DHT22;20119;48.334;16.206;2023-03-31T07:38:36;16.10;99.90
33811;DHT22;20119;48.334;16.206;2023-03-31T07:41:05;16.50;99.90
33811;DHT22;20119;48.334;16.206;2023-03-31T07:43:32;15.90;99.90
33811;DHT22;20119;48.334;16.206;2023-03-31T07:46:00;15.70;99.90
33811;DHT22;20119;48.334;16.206;2023-03-31T07:48:31;15.40;99.90
33811;DHT22;20119;48.334;16.206;2023-03-31T07:50:59;15.40;99.90
33811;DHT22;20119;48.334;16.206;2023-03-31T07:53:27;15.30;99.90
33811;DHT22;20119;48.334;16.206;2023-03-31T07:55:57;15.10;99.90
33811;DHT22;20119;48.334;16.206;2023-03-31T07:58:26;15.10;99.90
33811;DHT22;20119;48.334;16.206;2023-03-31T08:00:54;15.00;99.90
33811;DHT22;20119;48.334;16.206;2023-03-31T08:03:22;15.40;99.90
33811;DHT22;20119;48.334;16.206;2023-03-31T08:05:52;15.60;99.90
33811;DHT22;20119;48.334;16.206;2023-03-31T08:08:20;15.30;99.90
33811;DHT22;20119;48.334;16.206;2023-03-31T08:10:48;15.40;99.90
33811;DHT22;20119;48.334;16.206;2023-03-31T08:13:16;15.20;99.90
33811;DHT22;20119;48.334;16.206;2023-03-31T08:15:43;15.00;99.90
33811;DHT22;20119;48.334;16.206;2023-03-31T08:18:11;14.90;99.90
33811;DHT22;20119;48.334;16.206;2023-03-31T08:20:39;14.90;99.90
33811;DHT22;20119;48.334;16.206;2023-03-31T08:23:07;15.00;99.90
33811;DHT22;20119;48.334;16.206;2023-03-31T08:25:36;14.70;99.90
33811;DHT22;20119;48.334;16.206;2023-03-31T08:28:04;15.00;99.90
33811;DHT22;20119;48.334;16.206;2023-03-31T08:30:39;15.00;99.90
33811;DHT22;20119;48.334;16.206;2023-03-31T08:33:08;14.70;99.90
33811;DHT22;20119;48.334;16.206;2023-03-31T08:35:37;14.70;99.90
33811;DHT22;20119;48.334;16.206;2023-03-31T08:38:07;14.90;99.90
33811;DHT22;20119;48.334;16.206;2023-03-31T08:40:36;15.00;99.90
33811;DHT22;20119;48.334;16.206;2023-03-31T08:43:10;14.90;99.90
33811;DHT22;20119;48.334;16.206;2023-03-31T08:45:41;14.80;99.90
33811;DHT22;20119;48.334;16.206;2023-03-31T08:48:22;14.70;99.90
33811;DHT22;20119;48.334;16.206;2023-03-31T08:50:53;14.80;99.90
33811;DHT22;20119;48.334;16.206;2023-03-31T08:53:27;14.80;99.90
33811;DHT22;20119;48.334;16.206;2023-03-31T08:55:56;14.80;99.90
33811;DHT22;20119;48.334;16.206;2023-03-31T08:58:37;14.80;99.90
33811;DHT22;20119;48.334;16.206;2023-03-31T09:01:12;14.80;99.90
33811;DHT22;20119;48.334;16.206;2023-03-31T09:03:47;14.90;99.90
33811;DHT22;20119;48.334;16.206;2023-03-31T09:06:23;15.20;99.90
33811;DHT22;20119;48.334;16.206;2023-03-31T09:08:58;14.80;99.90
33811;DHT22;20119;48.334;16.206;2023-03-31T09:11:34;14.80;99.90
33811;DHT22;20119;48.334;16.206;2023-03-31T09:14:14;14.70;99.90
33811;DHT22;20119;48.334;16.206;2023-03-31T09:16:45;14.80;99.90
33811;DHT22;20119;48.334;16.206;2023-03-31T09:19:18;14.80;99.90
33811;DHT22;20119;48.334;16.206;2023-03-31T09:21:49;15.00;99.90
33811;DHT22;20119;48.334;16.206;2023-03-31T09:24:21;15.00;99.90
33811;DHT22;20119;48.334;16.206;2023-03-31T09:26:53;14.80;99.90
33811;DHT22;20119;48.334;16.206;2023-03-31T09:29:23;14.70;99.90
33811;DHT22;20119;48.334;16.206;2023-03-31T09:31:55;14.70;99.90
33811;DHT22;20119;48.334;16.206;2023-03-31T09:34:30;14.80;99.90
33811;DHT22;20119;48.334;16.206;2023-03-31T09:37:00;15.10;99.90
33811;DHT22;20119;48.334;16.206;2023-03-31T09:39:29;15.70;99.90
33811;DHT22;20119;48.334;16.206;2023-03-31T09:42:02;16.00;99.90
33811;DHT22;20119;48.334;16.206;2023-03-31T09:44:36;16.40;99.90
33811;DHT22;20119;48.334;16.206;2023-03-31T09:47:05;16.60;99.90
33811;DHT22;20119;48.334;16.206;2023-03-31T09:49:35;17.00;99.90
33811;DHT22;20119;48.334;16.206;2023-03-31T09:52:05;17.00;99.90
33811;DHT22;20119;48.334;16.206;2023-03-31T09:54:38;17.00;99.90
33811;DHT22;20119;48.334;16.206;2023-03-31T09:57:14;17.00;99.90
33811;DHT22;20119;48.334;16.206;2023-03-31T09:59:42;17.10;99.90
33811;DHT22;20119;48.334;16.206;2023-03-31T10:02:28;16.90;99.90
33811;DHT22;20119;48.334;16.206;2023-03-31T10:04:59;16.60;99.90
33811;DHT22;20119;48.334;16.206;2023-03-31T10:07:27;17.00;99.90
33811;DHT22;20119;48.334;16.206;2023-03-31T10:09:56;17.00;99.90
33811;DHT22;20119;48.334;16.206;2023-03-31T10:12:25;17.00;99.90
33811;DHT22;20119;48.334;16.206;2023-03-31T10:15:00;16.70;99.90
33811;DHT22;20119;48.334;16.206;2023-03-31T10:17:28;16.60;99.90
33811;DHT22;20119;48.334;16.206;2023-03-31T10:19:57;16.60;99.90
33811;DHT22;20119;48.334;16.206;2023-03-31T10:22:30;16.60;99.90
33811;DHT22;20119;48.334;16.206;2023-03-31T10:25:08;16.70;99.90
33811;DHT22;20119;48.334;16.206;2023-03-31T10:27:38;16.90;99.90
33811;DHT22;20119;48.334;16.206;2023-03-31T10:30:10;16.80;99.90
33811;DHT22;20119;48.334;16.206;2023-03-31T10:32:40;16.60;99.90
33811;DHT22;20119;48.334;16.206;2023-03-31T10:35:20;16.60;99.90
33811;DHT22;20119;48.334;16.206;2023-03-31T10:37:53;16.90;99.90
33811;DHT22;20119;48.334;16.206;2023-03-31T10:40:27;17.00;99.90
33811;DHT22;20119;48.334;16.206;2023-03-31T10:43:00;17.20;99.90
33811;DHT22;20119;48.334;16.206;2023-03-31T10:45:30;17.20;99.90
33811;DHT22;20119;48.334;16.206;2023-03-31T10:48:02;17.00;99.90
33811;DHT22;20119;48.334;16.206;2023-03-31T10:50:32;17.00;99.90
33811;DHT22;20119;48.334;16.206;2023-03-31T10:53:03;17.00;99.90
33811;DHT22;20119;48.334;16.206;2023-03-31T10:55:38;17.00;99.90
33811;DHT22;20119;48.334;16.206;2023-03-31T10:58:20;16.80;99.90
33811;DHT22;20119;48.334;16.206;2023-03-31T11:01:00;16.80;99.90
33811;DHT22;20119;48.334;16.206;2023-03-31T11:03:44;16.60;99.90
33811;DHT22;20119;48.334;16.206;2023-03-31T11:06:23;16.80;99.90
33811;DHT22;20119;48.334;16.206;2023-03-31T11:09:03;16.80;99.90
33811;DHT22;20119;48.334;16.206;2023-03-31T11:11:54;16.90;99.90
33811;DHT22;20119;48.334;16.206;2023-03-31T11:14:32;16.90;99.90
33811;DHT22;20119;48.334;16.206;2023-03-31T11:17:12;16.90;99.90
33811;DHT22;20119;48.334;16.206;2023-03-31T11:19:49;17.20;99.90
33811;DHT22;20119;48.334;16.206;2023-03-31T11:22:25;17.40;99.90
33811;DHT22;20119;48.334;16.206;2023-03-31T11:25:13;17.60;99.90
33811;DHT22;20119;48.334;16.206;2023-03-31T11:28:03;17.90;99.90
33811;DHT22;20119;48.334;16.206;2023-03-31T11:30:41;18.10;99.90
33811;DHT22;20119;48.334;16.206;2023-03-31T11:36:27;18.00;99.90
33811;DHT22;20119;48.334;16.206;2023-03-31T11:39:14;18.00;99.90
33811;DHT22;20119;48.334;16.206;2023-03-31T11:41:49;18.00;99.90
33811;DHT22;20119;48.334;16.206;2023-03-31T11:44:19;18.00;99.90
33811;DHT22;20119;48.334;16.206;2023-03-31T11:46:51;18.30;99.90
33811;DHT22;20119;48.334;16.206;2023-03-31T11:49:22;18.00;99.90
33811;DHT22;20119;48.334;16.206;2023-03-31T11:51:54;18.10;99.90
33811;DHT22;20119;48.334;16.206;2023-03-31T11:54:26;18.30;99.90
33811;DHT22;20119;48.334;16.206;2023-03-31T11:56:55;18.60;99.90
33811;DHT22;20119;48.334;16.206;2023-03-31T11:59:27;18.40;99.90
33811;DHT22;20119;48.334;16.206;2023-03-31T12:02:03;18.60;99.90
33811;DHT22;20119;48.334;16.206;2023-03-31T12:04:37;18.90;99.90
33811;DHT22;20119;48.334;16.206;2023-03-31T12:07:18;19.00;99.90
33811;DHT22;20119;48.334;16.206;2023-03-31T12:09:52;18.80;99.90
33811;DHT22;20119;48.334;16.206;2023-03-31T12:12:26;18.80;99.90
33811;DHT22;20119;48.334;16.206;2023-03-31T12:15:02;19.10;99.90
33811;DHT22;20119;48.334;16.206;2023-03-31T12:17:31;19.20;99.90
33811;DHT22;20119;48.334;16.206;2023-03-31T12:20:03;19.20;99.90
33811;DHT22;20119;48.334;16.206;2023-03-31T12:22:43;18.90;99.90
33811;DHT22;20119;48.334;16.206;2023-03-31T12:25:13;18.50;99.90
33811;DHT22;20119;48.334;16.206;2023-03-31T12:27:42;18.20;99.90
33811;DHT22;20119;48.334;16.206;2023-03-31T12:30:21;17.90;99.90
33811;DHT22;20119;48.334;16.206;2023-03-31T12:32:53;17.60;99.90
33811;DHT22;20119;48.334;16.206;2023-03-31T12:35:21;17.50;99.90
33811;DHT22;20119;48.334;16.206;2023-03-31T12:38:19;17.70;99.90
33811;DHT22;20119;48.334;16.206;2023-03-31T12:40:56;17.70;99.90
33811;DHT22;20119;48.334;16.206;2023-03-31T12:44:06;18.00;99.90
33811;DHT22;20119;48.334;16.206;2023-03-31T12:47:04;18.20;99.90
33811;DHT22;20119;48.334;16.206;2023-03-31T12:49:46;18.40;99.90
33811;DHT22;20119;48.334;16.206;2023-03-31T12:52:20;18.40;99.90
33811;DHT22;20119;48.334;16.206;2023-03-31T13:01:04;18.20;99.90
33811;DHT22;20119;48.334;16.206;2023-03-31T13:03:46;18.40;99.90
33811;DHT22;20119;48.334;16.206;2023-03-31T13:09:39;18.20;99.90
33811;DHT22;20119;48.334;16.206;2023-03-31T13:12:12;18.30;99.90
33811;DHT22;20119;48.334;16.206;2023-03-31T13:14:42;18.40;99.90
33811;DHT22;20119;48.334;16.206;2023-03-31T13:17:21;18.50;99.90
33811;DHT22;20119;48.334;16.206;2023-03-31T13:19:50;18.60;99.90
33811;DHT22;20119;48.334;16.206;2023-03-31T13:22:29;18.60;99.90
33811;DHT22;20119;48.334;16.206;2023-03-31T13:31:00;17.90;99.90
33811;DHT22;20119;48.334;16.206;2023-03-31T13:33:42;17.90;99.90
33811;DHT22;20119;48.334;16.206;2023-03-31T13:36:27;18.00;99.90
33811;DHT22;20119;48.334;16.206;2023-03-31T13:39:07;18.20;99.90
33811;DHT22;20119;48.334;16.206;2023-03-31T13:41:48;18.30;99.90
33811;DHT22;20119;48.334;16.206;2023-03-31T13:44:41;18.20;99.90
33811;DHT22;20119;48.334;16.206;2023-03-31T13:47:57;18.10;99.90
33811;DHT22;20119;48.334;16.206;2023-03-31T13:51:04;18.10;99.90
33811;DHT22;20119;48.334;16.206;2023-03-31T13:53:56;18.20;99.90
33811;DHT22;20119;48.334;16.206;2023-03-31T13:56:40;18.40;99.90
33811;DHT22;20119;48.334;16.206;2023-03-31T13:59:45;18.50;99.90
33811;DHT22;20119;48.334;16.206;2023-03-31T14:02:44;18.70;99.90
33811;DHT22;20119;48.334;16.206;2023-03-31T14:05:28;18.60;99.90
33811;DHT22;20119;48.334;16.206;2023-03-31T14:08:00;18.60;99.90
33811;DHT22;20119;48.334;16.206;2023-03-31T14:10:32;18.50;99.90
33811;DHT22;20119;48.334;16.206;2023-03-31T14:13:10;18.40;99.90
33811;DHT22;20119;48.334;16.206;2023-03-31T14:15:40;18.40;99.90
33811;DHT22;20119;48.334;16.206;2023-03-31T14:18:11;18.10;99.90
33811;DHT22;20119;48.334;16.206;2023-03-31T14:21:00;17.90;99.90
33811;DHT22;20119;48.334;16.206;2023-03-31T14:23:39;17.90;99.90
33811;DHT22;20119;48.334;16.206;2023-03-31T14:26:15;17.70;99.90
33811;DHT22;20119;48.334;16.206;2023-03-31T14:28:54;17.30;99.90
33811;DHT22;20119;48.334;16.206;2023-03-31T14:31:27;17.30;99.90
33811;DHT22;20119;48.334;16.206;2023-03-31T14:34:12;17.20;99.90
33811;DHT22;20119;48.334;16.206;2023-03-31T14:36:47;17.20;99.90
33811;DHT22;20119;48.334;16.206;2023-03-31T14:39:24;17.10;99.90
33811;DHT22;20119;48.334;16.206;2023-03-31T14:41:58;17.10;99.90
33811;DHT22;20119;48.334;16.206;2023-03-31T14:44:28;16.90;99.90
33811;DHT22;20119;48.334;16.206;2023-03-31T14:46:56;16.70;99.90
33811;DHT22;20119;48.334;16.206;2023-03-31T14:49:26;16.70;99.90
33811;DHT22;20119;48.334;16.206;2023-03-31T14:51:57;16.70;99.90
33811;DHT22;20119;48.334;16.206;2023-03-31T14:54:25;16.60;99.90
33811;DHT22;20119;48.334;16.206;2023-03-31T14:56:55;16.70;99.90
33811;DHT22;20119;48.334;16.206;2023-03-31T14:59:30;16.70;99.90
33811;DHT22;20119;48.334;16.206;2023-03-31T15:02:00;16.60;99.90
33811;DHT22;20119;48.334;16.206;2023-03-31T15:04:30;16.50;99.90
33811;DHT22;20119;48.334;16.206;2023-03-31T15:06:58;16.40;99.90
33811;DHT22;20119;48.334;16.206;2023-03-31T15:09:29;16.40;99.90
33811;DHT22;20119;48.334;16.206;2023-03-31T15:11:59;16.40;99.90
33811;DHT22;20119;48.334;16.206;2023-03-31T15:14:28;16.40;99.90
33811;DHT22;20119;48.334;16.206;2023-03-31T15:16:56;16.40;99.90
33811;DHT22;20119;48.334;16.206;2023-03-31T15:19:28;15.90;99.90
33811;DHT22;20119;48.334;16.206;2023-03-31T15:21:57;14.70;99.90
33811;DHT22;20119;48.334;16.206;2023-03-31T15:24:26;13.90;99.90
33811;DHT22;20119;48.334;16.206;2023-03-31T15:26:59;13.50;99.90
33811;DHT22;20119;48.334;16.206;2023-03-31T15:29:34;13.20;99.90
33811;DHT22;20119;48.334;16.206;2023-03-31T15:32:06;12.60;99.90
33811;DHT22;20119;48.334;16.206;2023-03-31T15:34:37;12.50;99.90
33811;DHT22;20119;48.334;16.206;2023-03-31T15:37:06;12.30;99.90
33811;DHT22;20119;48.334;16.206;2023-03-31T15:39:35;12.10;99.90
33811;DHT22;20119;48.334;16.206;2023-03-31T15:42:06;12.20;99.90
33811;DHT22;20119;48.334;16.206;2023-03-31T15:44:37;12.20;99.90
33811;DHT22;20119;48.334;16.206;2023-03-31T15:47:16;12.10;99.90
33811;DHT22;20119;48.334;16.206;2023-03-31T15:49:53;12.10;99.90
33811;DHT22;20119;48.334;16.206;2023-03-31T15:52:24;12.20;99.90
33811;DHT22;20119;48.334;16.206;2023-03-31T15:54:52;12.00;99.90
33811;DHT22;20119;48.334;16.206;2023-03-31T15:57:31;11.80;99.90
33811;DHT22;20119;48.334;16.206;2023-03-31T15:59:59;11.80;99.90
33811;DHT22;20119;48.334;16.206;2023-03-31T16:02:37;11.80;99.90
33811;DHT22;20119;48.334;16.206;2023-03-31T16:05:15;11.80;99.90
33811;DHT22;20119;48.334;16.206;2023-03-31T16:07:48;11.80;99.90
33811;DHT22;20119;48.334;16.206;2023-03-31T16:10:18;11.90;99.90
33811;DHT22;20119;48.334;16.206;2023-03-31T16:12:51;11.80;99.90
33811;DHT22;20119;48.334;16.206;2023-03-31T16:15:27;11.90;99.90
33811;DHT22;20119;48.334;16.206;2023-03-31T16:17:58;11.80;99.90
33811;DHT22;20119;48.334;16.206;2023-03-31T16:20:30;11.80;99.90
33811;DHT22;20119;48.334;16.206;2023-03-31T16:23:10;11.90;99.90